createdAt,value
2016-06-03T00:00:07.357Z,951.2
2016-06-03T00:00:16.076Z,951.2
2016-06-03T00:00:29.622Z,951.3
2016-06-03T00:00:37.154Z,951.2
2016-06-03T00:00:48.734Z,951.1
2016-06-03T00:00:57.937Z,951.1
2016-06-03T00:01:06.046Z,951.1
2016-06-03T00:01:15.859Z,951.2
2016-06-03T00:01:26.031Z,951.2
2016-06-03T00:01:36.031Z,951.2
2016-06-03T00:01:46.315Z,951.1
2016-06-03T00:01:56.159Z,951.1
2016-06-03T00:02:06.737Z,951.2
2016-06-03T00:02:16.034Z,951.2
2016-06-03T00:02:26.034Z,951.2
2016-06-03T00:02:36.456Z,951.2
2016-06-03T00:02:46.677Z,951.1
2016-06-03T00:02:56.005Z,951.1
2016-06-03T00:03:06.005Z,951.1
2016-06-03T00:03:15.677Z,951.1
2016-06-03T00:03:25.990Z,951.1
2016-06-03T00:03:35.990Z,951.1
2016-06-03T00:03:47.289Z,951.1
2016-06-03T00:03:55.992Z,951.1
2016-06-03T00:04:06.757Z,951.1
2016-06-03T00:04:16.007Z,951.1
2016-06-03T00:04:25.992Z,951.1
2016-06-03T00:04:35.867Z,951
2016-06-03T00:04:45.994Z,951.1
2016-06-03T00:04:55.978Z,951
2016-06-03T00:05:06.869Z,951
2016-06-03T00:05:15.978Z,951
2016-06-03T00:05:26.541Z,951
2016-06-03T00:05:36.494Z,951
2016-06-03T00:05:46.841Z,951.1
2016-06-03T00:05:55.981Z,951
2016-06-03T00:06:06.794Z,951
2016-06-03T00:06:15.856Z,950.9
2016-06-03T00:06:25.966Z,951
2016-06-03T00:06:35.950Z,951
2016-06-03T00:06:45.937Z,950.9
2016-06-03T00:06:55.953Z,950.9
2016-06-03T00:07:05.953Z,951
2016-06-03T00:07:15.937Z,950.9
2016-06-03T00:07:26.656Z,950.9
2016-06-03T00:07:35.937Z,951
2016-06-03T00:07:45.956Z,950.9
2016-06-03T00:07:56.550Z,950.9
2016-06-03T00:08:05.940Z,950.9
2016-06-03T00:08:16.034Z,950.8
2016-06-03T00:08:25.972Z,950.9
2016-06-03T00:08:36.487Z,950.8
2016-06-03T00:08:46.083Z,951
2016-06-03T00:08:55.911Z,951
2016-06-03T00:09:08.849Z,950.9
2016-06-03T00:09:17.145Z,950.9
2016-06-03T00:09:26.802Z,950.9
2016-06-03T00:09:37.411Z,951
2016-06-03T00:11:25.354Z,950.8
2016-06-03T00:11:31.588Z,950.8
2016-06-03T00:11:41.900Z,950.8
2016-06-03T00:11:51.920Z,950.8
2016-06-03T00:12:01.545Z,950.8
2016-06-03T00:12:11.576Z,950.9
2016-06-03T00:12:21.592Z,950.8
2016-06-03T00:12:31.545Z,950.8
2016-06-03T00:12:41.561Z,950.9
2016-06-03T00:12:51.563Z,950.9
2016-06-03T00:13:01.547Z,950.9
2016-06-03T00:13:11.531Z,950.9
2016-06-03T00:13:21.531Z,950.8
2016-06-03T00:13:31.563Z,950.9
2016-06-03T00:13:41.531Z,950.9
2016-06-03T00:13:51.534Z,951
2016-06-03T00:14:01.519Z,950.8
2016-06-03T00:14:11.550Z,950.8
2016-06-03T00:14:21.394Z,951
2016-06-03T00:14:31.519Z,950.9
2016-06-03T00:14:41.566Z,951
2016-06-03T00:14:51.522Z,951
2016-06-03T00:15:01.553Z,950.9
2016-06-03T00:15:11.506Z,951
2016-06-03T00:15:21.506Z,950.9
2016-06-03T00:15:31.506Z,950.9
2016-06-03T00:15:41.506Z,951
2016-06-03T00:15:51.352Z,951
2016-06-03T00:16:01.508Z,951
2016-06-03T00:16:11.524Z,951
2016-06-03T00:16:24.524Z,951
2016-06-03T00:16:35.946Z,951
2016-06-03T00:16:46.589Z,951
2016-06-03T00:16:58.246Z,951
2016-06-03T00:17:05.496Z,951
2016-06-03T00:17:15.074Z,950.9
2016-06-03T00:17:25.105Z,951
2016-06-03T00:17:35.246Z,950.9
2016-06-03T00:17:45.077Z,950.9
2016-06-03T00:17:59.233Z,951
2016-06-03T00:18:10.858Z,950.9
2016-06-03T00:18:21.983Z,950.9
2016-06-03T00:18:33.530Z,950.8
2016-06-03T00:18:44.955Z,951
2016-06-03T00:18:56.673Z,950.9
2016-06-03T00:19:08.345Z,951
2016-06-03T00:19:16.127Z,951
2016-06-03T00:19:25.080Z,950.9
2016-06-03T00:19:35.095Z,951
2016-06-03T00:19:45.067Z,951
2016-06-03T00:19:55.067Z,951
2016-06-03T00:20:05.083Z,950.8
2016-06-03T00:20:15.067Z,951
2016-06-03T00:20:25.083Z,950.9
2016-06-03T00:20:35.067Z,951
2016-06-03T00:20:45.052Z,951
2016-06-03T00:20:55.052Z,950.9
2016-06-03T00:21:05.052Z,950.9
2016-06-03T00:21:15.052Z,950.9
2016-06-03T00:21:25.052Z,950.9
2016-06-03T00:21:35.068Z,951
2016-06-03T00:21:45.041Z,950.9
2016-06-03T00:21:55.041Z,950.9
2016-06-03T00:22:05.041Z,950.9
2016-06-03T00:22:15.041Z,950.9
2016-06-03T00:22:25.072Z,951
2016-06-03T00:22:35.025Z,950.9
2016-06-03T00:22:45.027Z,951
2016-06-03T00:22:55.043Z,951
2016-06-03T00:23:05.043Z,951
2016-06-03T00:23:15.027Z,950.8
2016-06-03T00:23:25.043Z,950.9
2016-06-03T00:23:35.012Z,950.9
2016-06-03T00:23:45.015Z,950.9
2016-06-03T00:23:55.015Z,951
2016-06-03T00:24:05.015Z,951
2016-06-03T00:24:14.858Z,950.9
2016-06-03T00:24:25.015Z,950.8
2016-06-03T00:24:35.015Z,950.8
2016-06-03T00:24:45.110Z,950.9
2016-06-03T00:24:55.704Z,950.9
2016-06-03T00:25:05.470Z,950.9
2016-06-03T00:25:16.110Z,950.8
2016-06-03T00:25:26.517Z,950.8
2016-06-03T00:25:35.517Z,950.9
2016-06-03T00:25:45.113Z,950.8
2016-06-03T00:25:54.988Z,950.9
2016-06-03T00:26:05.020Z,950.9
2016-06-03T00:26:14.988Z,950.8
2016-06-03T00:26:24.973Z,950.8
2016-06-03T00:26:34.988Z,950.8
2016-06-03T00:26:44.976Z,950.8
2016-06-03T00:26:54.679Z,950.8
2016-06-03T00:27:04.819Z,950.8
2016-06-03T00:27:14.819Z,950.8
2016-06-03T00:27:24.976Z,950.8
2016-06-03T00:27:34.960Z,950.8
2016-06-03T00:27:44.978Z,950.8
2016-06-03T00:27:54.962Z,950.8
2016-06-03T00:28:04.978Z,950.9
2016-06-03T00:28:14.962Z,950.9
2016-06-03T00:28:24.946Z,951
2016-06-03T00:28:34.962Z,950.8
2016-06-03T00:28:44.966Z,950.8
2016-06-03T00:28:54.935Z,950.7
2016-06-03T00:29:04.997Z,950.8
2016-06-03T00:29:14.935Z,950.7
2016-06-03T00:29:24.935Z,950.8
2016-06-03T00:29:34.950Z,950.7
2016-06-03T00:29:44.937Z,950.8
2016-06-03T00:29:54.937Z,950.8
2016-06-03T00:30:04.937Z,950.7
2016-06-03T00:30:14.937Z,950.8
2016-06-03T00:30:24.921Z,950.8
2016-06-03T00:30:34.952Z,950.7
2016-06-03T00:30:44.939Z,950.8
2016-06-03T00:30:54.908Z,950.7
2016-06-03T00:31:08.736Z,950.8
2016-06-03T00:31:14.970Z,950.8
2016-06-03T00:31:24.939Z,950.8
2016-06-03T00:31:34.783Z,950.7
2016-06-03T00:31:44.943Z,950.8
2016-06-03T00:31:54.615Z,950.7
2016-06-03T00:32:04.771Z,950.8
2016-06-03T00:32:14.943Z,950.7
2016-06-03T00:32:24.927Z,950.7
2016-06-03T00:32:34.912Z,950.8
2016-06-03T00:32:44.929Z,950.7
2016-06-03T00:32:54.757Z,950.7
2016-06-03T00:33:04.914Z,950.8
2016-06-03T00:33:14.914Z,950.7
2016-06-03T00:33:24.914Z,950.7
2016-06-03T00:33:34.742Z,950.8
2016-06-03T00:33:44.932Z,950.7
2016-06-03T00:33:54.901Z,950.7
2016-06-03T00:34:04.901Z,950.7
2016-06-03T00:34:14.885Z,950.7
2016-06-03T00:34:24.901Z,950.8
2016-06-03T00:34:34.885Z,950.7
2016-06-03T00:34:44.887Z,950.7
2016-06-03T00:34:54.872Z,950.7
2016-06-03T00:35:04.887Z,950.7
2016-06-03T00:35:14.919Z,950.7
2016-06-03T00:35:24.887Z,950.7
2016-06-03T00:35:34.856Z,950.8
2016-06-03T00:35:44.875Z,950.7
2016-06-03T00:35:54.859Z,950.7
2016-06-03T00:36:04.734Z,950.7
2016-06-03T00:36:14.875Z,950.7
2016-06-03T00:36:24.859Z,950.7
2016-06-03T00:36:34.875Z,950.6
2016-06-03T00:36:44.862Z,950.7
2016-06-03T00:36:54.706Z,950.7
2016-06-03T00:37:04.862Z,950.7
2016-06-03T00:37:14.846Z,950.7
2016-06-03T00:37:24.862Z,950.6
2016-06-03T00:37:34.862Z,950.7
2016-06-03T00:37:44.864Z,950.7
2016-06-03T00:37:54.848Z,950.7
2016-06-03T00:38:04.692Z,950.7
2016-06-03T00:38:14.833Z,950.7
2016-06-03T00:38:24.692Z,950.7
2016-06-03T00:38:34.817Z,950.6
2016-06-03T00:38:44.836Z,950.7
2016-06-03T00:38:54.680Z,950.7
2016-06-03T00:39:04.820Z,950.6
2016-06-03T00:39:14.820Z,950.7
2016-06-03T00:39:24.820Z,950.7
2016-06-03T00:39:34.836Z,950.6
2016-06-03T00:39:45.292Z,950.6
2016-06-03T00:39:54.683Z,950.6
2016-06-03T00:40:04.964Z,950.7
2016-06-03T00:40:14.683Z,950.6
2016-06-03T00:40:25.261Z,950.6
2016-06-03T00:40:35.229Z,950.6
2016-06-03T00:40:44.826Z,950.6
2016-06-03T00:40:55.217Z,950.6
2016-06-03T00:41:04.811Z,950.6
2016-06-03T00:41:14.811Z,950.6
2016-06-03T00:41:24.795Z,950.6
2016-06-03T00:41:34.795Z,950.6
2016-06-03T00:41:44.782Z,950.6
2016-06-03T00:41:54.798Z,950.5
2016-06-03T00:42:04.798Z,950.6
2016-06-03T00:42:14.798Z,950.5
2016-06-03T00:42:24.798Z,950.6
2016-06-03T00:42:34.767Z,950.6
2016-06-03T00:42:44.784Z,950.6
2016-06-03T00:42:54.800Z,950.5
2016-06-03T00:43:04.769Z,950.5
2016-06-03T00:43:14.628Z,950.5
2016-06-03T00:43:24.769Z,950.5
2016-06-03T00:43:34.769Z,950.6
2016-06-03T00:43:44.771Z,950.6
2016-06-03T00:43:54.771Z,950.5
2016-06-03T00:44:04.818Z,950.5
2016-06-03T00:44:14.786Z,950.6
2016-06-03T00:44:24.771Z,950.5
2016-06-03T00:44:34.739Z,950.5
2016-06-03T00:44:44.774Z,950.5
2016-06-03T00:44:54.742Z,950.5
2016-06-03T00:45:04.758Z,950.5
2016-06-03T00:45:14.758Z,950.4
2016-06-03T00:45:24.742Z,950.5
2016-06-03T00:45:34.742Z,950.5
2016-06-03T00:45:44.745Z,950.6
2016-06-03T00:45:54.730Z,950.4
2016-06-03T00:46:04.730Z,950.5
2016-06-03T00:46:14.730Z,950.5
2016-06-03T00:46:24.730Z,950.5
2016-06-03T00:46:34.730Z,950.5
2016-06-03T00:46:44.716Z,950.4
2016-06-03T00:46:54.716Z,950.5
2016-06-03T00:47:04.732Z,950.4
2016-06-03T00:47:14.716Z,950.5
2016-06-03T00:47:24.716Z,950.4
2016-06-03T00:47:34.716Z,950.5
2016-06-03T00:47:44.705Z,950.5
2016-06-03T00:47:54.720Z,950.5
2016-06-03T00:48:04.564Z,950.4
2016-06-03T00:48:14.705Z,950.5
2016-06-03T00:48:24.689Z,950.5
2016-06-03T00:48:34.705Z,950.5
2016-06-03T00:48:44.691Z,950.6
2016-06-03T00:48:54.691Z,950.5
2016-06-03T00:49:04.691Z,950.5
2016-06-03T00:49:14.691Z,950.5
2016-06-03T00:49:24.519Z,950.4
2016-06-03T00:49:34.691Z,950.4
2016-06-03T00:49:44.663Z,950.5
2016-06-03T00:49:54.678Z,950.4
2016-06-03T00:50:04.663Z,950.4
2016-06-03T00:50:14.663Z,950.5
2016-06-03T00:50:24.663Z,950.5
2016-06-03T00:50:34.663Z,950.4
2016-06-03T00:50:44.665Z,950.5
2016-06-03T00:50:54.665Z,950.5
2016-06-03T00:51:04.665Z,950.4
2016-06-03T00:51:14.649Z,950.5
2016-06-03T00:51:24.665Z,950.5
2016-06-03T00:51:34.680Z,950.4
2016-06-03T00:51:44.652Z,950.5
2016-06-03T00:51:54.652Z,950.5
2016-06-03T00:52:04.668Z,950.4
2016-06-03T00:52:14.652Z,950.5
2016-06-03T00:52:24.652Z,950.5
2016-06-03T00:52:34.636Z,950.5
2016-06-03T00:52:44.499Z,950.5
2016-06-03T00:52:54.671Z,950.4
2016-06-03T00:53:04.686Z,950.5
2016-06-03T00:53:14.639Z,950.5
2016-06-03T00:53:24.639Z,950.5
2016-06-03T00:53:34.639Z,950.4
2016-06-03T00:53:44.641Z,950.4
2016-06-03T00:53:54.641Z,950.5
2016-06-03T00:54:04.626Z,950.5
2016-06-03T00:54:14.626Z,950.5
2016-06-03T00:54:24.626Z,950.4
2016-06-03T00:54:34.626Z,950.5
2016-06-03T00:54:45.144Z,950.4
2016-06-03T00:54:54.457Z,950.5
2016-06-03T00:55:05.348Z,950.4
2016-06-03T00:55:14.723Z,950.3
2016-06-03T00:55:24.676Z,950.4
2016-06-03T00:55:35.113Z,950.5
2016-06-03T00:55:44.976Z,950.5
2016-06-03T00:55:55.444Z,950.4
2016-06-03T00:56:04.444Z,950.5
2016-06-03T00:56:14.585Z,950.5
2016-06-03T00:56:24.569Z,950.4
2016-06-03T00:56:34.601Z,950.4
2016-06-03T00:56:44.588Z,950.4
2016-06-03T00:56:54.588Z,950.3
2016-06-03T00:57:04.604Z,950.3
2016-06-03T00:57:14.432Z,950.4
2016-06-03T00:57:24.588Z,950.5
2016-06-03T00:57:34.604Z,950.4
2016-06-03T00:57:44.575Z,950.4
2016-06-03T00:57:54.575Z,950.4
2016-06-03T00:58:04.591Z,950.5
2016-06-03T00:58:14.560Z,950.3
2016-06-03T00:58:24.419Z,950.4
2016-06-03T00:58:34.560Z,950.4
2016-06-03T00:58:44.562Z,950.4
2016-06-03T00:58:54.562Z,950.4
2016-06-03T00:59:04.562Z,950.4
2016-06-03T00:59:14.390Z,950.3
2016-06-03T00:59:24.546Z,950.3
2016-06-03T00:59:34.546Z,950.3
2016-06-03T00:59:44.532Z,950.5
2016-06-03T00:59:54.548Z,950.4
2016-06-03T01:00:04.532Z,950.4
2016-06-03T01:00:14.548Z,950.4
2016-06-03T01:00:24.532Z,950.4
2016-06-03T01:00:34.532Z,950.4
2016-06-03T01:00:44.392Z,950.3
2016-06-03T01:00:54.551Z,950.4
2016-06-03T01:01:04.520Z,950.3
2016-06-03T01:01:14.520Z,950.3
2016-06-03T01:01:24.520Z,950.5
2016-06-03T01:01:34.520Z,950.3
2016-06-03T01:01:44.520Z,950.3
2016-06-03T01:01:54.523Z,950.3
2016-06-03T01:02:04.367Z,950.3
2016-06-03T01:02:14.507Z,950.4
2016-06-03T01:02:24.507Z,950.3
2016-06-03T01:02:34.507Z,950.5
2016-06-03T01:02:44.351Z,950.4
2016-06-03T01:02:54.510Z,950.3
2016-06-03T01:03:04.495Z,950.3
2016-06-03T01:03:14.495Z,950.3
2016-06-03T01:03:24.495Z,950.3
2016-06-03T01:03:34.495Z,950.3
2016-06-03T01:03:44.495Z,950.3
2016-06-03T01:03:54.481Z,950.3
2016-06-03T01:04:04.497Z,950.2
2016-06-03T01:04:14.497Z,950.3
2016-06-03T01:04:24.497Z,950.3
2016-06-03T01:04:34.481Z,950.3
2016-06-03T01:04:44.481Z,950.4
2016-06-03T01:04:54.484Z,950.3
2016-06-03T01:05:04.468Z,950.3
2016-06-03T01:05:14.468Z,950.3
2016-06-03T01:05:24.468Z,950.3
2016-06-03T01:05:34.468Z,950.4
2016-06-03T01:05:44.468Z,950.3
2016-06-03T01:05:54.456Z,950.3
2016-06-03T01:06:04.471Z,950.3
2016-06-03T01:06:14.471Z,950.3
2016-06-03T01:06:24.456Z,950.3
2016-06-03T01:06:34.456Z,950.4
2016-06-03T01:06:44.440Z,950.3
2016-06-03T01:06:54.443Z,950.3
2016-06-03T01:07:04.443Z,950.3
2016-06-03T01:07:14.443Z,950.3
2016-06-03T01:07:24.443Z,950.3
2016-06-03T01:07:34.427Z,950.3
2016-06-03T01:07:44.443Z,950.3
2016-06-03T01:07:54.430Z,950.3
2016-06-03T01:08:04.430Z,950.3
2016-06-03T01:08:14.477Z,950.2
2016-06-03T01:08:24.430Z,950.3
2016-06-03T01:08:34.446Z,950.3
2016-06-03T01:08:44.415Z,950.3
2016-06-03T01:08:54.417Z,950.3
2016-06-03T01:09:04.432Z,950.3
2016-06-03T01:09:14.417Z,950.3
2016-06-03T01:09:24.401Z,950.3
2016-06-03T01:09:34.776Z,950.2
2016-06-03T01:09:46.560Z,950.3
2016-06-03T01:09:55.748Z,950.2
2016-06-03T01:10:04.920Z,950.3
2016-06-03T01:10:15.904Z,950.4
2016-06-03T01:10:24.685Z,950.3
2016-06-03T01:10:36.107Z,950.2
2016-06-03T01:10:44.670Z,950.3
2016-06-03T01:10:54.969Z,950.3
2016-06-03T01:11:04.391Z,950.2
2016-06-03T01:11:14.234Z,950.3
2016-06-03T01:11:24.391Z,950.3
2016-06-03T01:11:34.375Z,950.2
2016-06-03T01:11:44.375Z,950.3
2016-06-03T01:11:54.394Z,950.3
2016-06-03T01:12:04.394Z,950.2
2016-06-03T01:12:14.378Z,950.3
2016-06-03T01:12:24.378Z,950.3
2016-06-03T01:12:34.378Z,950.2
2016-06-03T01:12:44.362Z,950.2
2016-06-03T01:12:54.380Z,950.2
2016-06-03T01:13:04.364Z,950.3
2016-06-03T01:13:14.349Z,950.2
2016-06-03T01:13:24.364Z,950.3
2016-06-03T01:13:34.349Z,950.3
2016-06-03T01:13:44.396Z,950.2
2016-06-03T01:13:54.367Z,950.3
2016-06-03T01:14:04.352Z,950.2
2016-06-03T01:14:14.352Z,950.1
2016-06-03T01:14:24.367Z,950.2
2016-06-03T01:14:34.367Z,950.2
2016-06-03T01:14:44.383Z,950.2
2016-06-03T01:14:54.339Z,950.2
2016-06-03T01:15:04.417Z,950.2
2016-06-03T01:15:14.355Z,950.2
2016-06-03T01:15:24.339Z,950.2
2016-06-03T01:15:34.355Z,950.2
2016-06-03T01:15:44.339Z,950.1
2016-06-03T01:15:54.358Z,950.2
2016-06-03T01:16:04.311Z,950.1
2016-06-03T01:16:14.342Z,950.2
2016-06-03T01:16:24.311Z,950.1
2016-06-03T01:16:34.311Z,950.1
2016-06-03T01:16:44.311Z,950.1
2016-06-03T01:16:54.328Z,950.2
2016-06-03T01:17:04.157Z,950.2
2016-06-03T01:17:14.313Z,950.1
2016-06-03T01:17:24.313Z,950.1
2016-06-03T01:17:34.297Z,950.2
2016-06-03T01:17:44.297Z,950.1
2016-06-03T01:17:54.300Z,950.2
2016-06-03T01:18:04.316Z,950.2
2016-06-03T01:18:14.285Z,950.2
2016-06-03T01:18:24.285Z,950.2
2016-06-03T01:18:34.300Z,950.1
2016-06-03T01:18:44.285Z,950.1
2016-06-03T01:18:54.288Z,950.2
2016-06-03T01:19:04.303Z,950.1
2016-06-03T01:19:14.288Z,950.2
2016-06-03T01:19:24.272Z,950.2
2016-06-03T01:19:34.131Z,950.2
2016-06-03T01:19:44.272Z,950
2016-06-03T01:19:54.258Z,950.2
2016-06-03T01:20:04.274Z,950.2
2016-06-03T01:20:14.102Z,950.1
2016-06-03T01:20:24.243Z,950.2
2016-06-03T01:20:34.258Z,950.1
2016-06-03T01:20:44.102Z,950.1
2016-06-03T01:20:54.261Z,950.2
2016-06-03T01:21:04.246Z,950.1
2016-06-03T01:21:14.261Z,950.1
2016-06-03T01:21:24.246Z,950.2
2016-06-03T01:21:34.246Z,950.1
2016-06-03T01:21:44.261Z,950.1
2016-06-03T01:21:54.264Z,950.1
2016-06-03T01:22:04.233Z,950.2
2016-06-03T01:22:14.249Z,950.2
2016-06-03T01:22:24.249Z,950.1
2016-06-03T01:22:34.233Z,950.1
2016-06-03T01:22:44.217Z,950.1
2016-06-03T01:22:54.252Z,950.1
2016-06-03T01:23:04.236Z,950.1
2016-06-03T01:23:14.080Z,950.1
2016-06-03T01:23:24.220Z,950.1
2016-06-03T01:23:34.220Z,950.1
2016-06-03T01:23:44.220Z,950.1
2016-06-03T01:23:54.222Z,950.1
2016-06-03T01:24:04.222Z,950.1
2016-06-03T01:24:14.207Z,950.1
2016-06-03T01:24:24.222Z,950.1
2016-06-03T01:24:34.066Z,950.1
2016-06-03T01:24:45.554Z,950.1
2016-06-03T01:24:54.163Z,950.1
2016-06-03T01:25:07.413Z,950.1
2016-06-03T01:25:14.647Z,950.2
2016-06-03T01:25:24.225Z,950.1
2016-06-03T01:25:34.975Z,950.1
2016-06-03T01:25:45.432Z,950.1
2016-06-03T01:25:54.682Z,950.2
2016-06-03T01:26:04.182Z,950.1
2016-06-03T01:26:14.182Z,950.1
2016-06-03T01:26:24.182Z,950.1
2016-06-03T01:26:34.182Z,950.1
2016-06-03T01:26:44.166Z,950.1
2016-06-03T01:26:54.184Z,950.1
2016-06-03T01:27:04.184Z,950.1
2016-06-03T01:27:14.168Z,950.1
2016-06-03T01:27:24.184Z,950
2016-06-03T01:27:34.168Z,950.1
2016-06-03T01:27:44.168Z,950.1
2016-06-03T01:27:54.155Z,950.1
2016-06-03T01:28:04.171Z,950.1
2016-06-03T01:28:14.155Z,950
2016-06-03T01:28:24.140Z,950.1
2016-06-03T01:28:34.155Z,950
2016-06-03T01:28:44.140Z,950
2016-06-03T01:28:54.142Z,950
2016-06-03T01:29:04.142Z,950
2016-06-03T01:29:14.142Z,950
2016-06-03T01:29:24.142Z,950
2016-06-03T01:29:34.157Z,950
2016-06-03T01:29:44.142Z,950
2016-06-03T01:29:54.129Z,950
2016-06-03T01:30:04.145Z,950
2016-06-03T01:30:14.129Z,949.9
2016-06-03T01:30:24.145Z,950
2016-06-03T01:30:34.113Z,950
2016-06-03T01:30:44.145Z,950
2016-06-03T01:30:53.976Z,949.9
2016-06-03T01:31:04.116Z,950
2016-06-03T01:31:14.101Z,950
2016-06-03T01:31:24.116Z,950
2016-06-03T01:31:34.116Z,949.9
2016-06-03T01:31:44.116Z,950
2016-06-03T01:31:54.104Z,949.9
2016-06-03T01:32:04.119Z,949.9
2016-06-03T01:32:14.104Z,949.8
2016-06-03T01:32:24.104Z,949.9
2016-06-03T01:32:34.119Z,950
2016-06-03T01:32:44.088Z,949.9
2016-06-03T01:32:54.121Z,949.8
2016-06-03T01:33:04.090Z,949.9
2016-06-03T01:33:14.075Z,949.9
2016-06-03T01:33:24.090Z,949.9
2016-06-03T01:33:34.075Z,949.8
2016-06-03T01:33:44.075Z,949.9
2016-06-03T01:33:54.093Z,949.9
2016-06-03T01:34:04.078Z,949.9
2016-06-03T01:34:14.093Z,949.9
2016-06-03T01:34:24.062Z,949.8
2016-06-03T01:34:34.078Z,949.8
2016-06-03T01:34:44.062Z,949.8
2016-06-03T01:34:53.909Z,949.9
2016-06-03T01:35:04.065Z,949.8
2016-06-03T01:35:14.065Z,949.9
2016-06-03T01:35:24.065Z,949.8
2016-06-03T01:35:34.065Z,949.8
2016-06-03T01:35:44.065Z,949.8
2016-06-03T01:35:54.067Z,949.8
2016-06-03T01:36:03.911Z,949.8
2016-06-03T01:36:14.067Z,949.8
2016-06-03T01:36:24.036Z,949.8
2016-06-03T01:36:34.036Z,949.8
2016-06-03T01:36:44.051Z,949.8
2016-06-03T01:36:53.882Z,949.8
2016-06-03T01:37:04.039Z,949.9
2016-06-03T01:37:14.039Z,949.8
2016-06-03T01:37:23.882Z,949.8
2016-06-03T01:37:34.039Z,949.8
2016-06-03T01:37:44.039Z,949.8
2016-06-03T01:37:54.026Z,949.8
2016-06-03T01:38:04.026Z,949.8
2016-06-03T01:38:14.042Z,949.8
2016-06-03T01:38:24.042Z,949.8
2016-06-03T01:38:34.026Z,949.8
2016-06-03T01:38:44.010Z,949.8
2016-06-03T01:38:54.012Z,949.8
2016-06-03T01:39:04.028Z,949.7
2016-06-03T01:39:13.997Z,949.6
2016-06-03T01:39:24.012Z,949.8
2016-06-03T01:39:33.887Z,949.7
2016-06-03T01:39:44.637Z,949.8
2016-06-03T01:39:54.032Z,949.8
2016-06-03T01:40:04.001Z,949.8
2016-06-03T01:40:14.532Z,949.7
2016-06-03T01:40:24.391Z,949.7
2016-06-03T01:40:34.345Z,949.7
2016-06-03T01:40:44.470Z,949.8
2016-06-03T01:40:54.612Z,949.7
2016-06-03T01:41:03.987Z,949.6
2016-06-03T01:41:13.987Z,949.8
2016-06-03T01:41:23.972Z,949.6
2016-06-03T01:41:33.972Z,949.7
2016-06-03T01:41:43.831Z,949.7
2016-06-03T01:41:53.974Z,949.7
2016-06-03T01:42:03.974Z,949.7
2016-06-03T01:42:13.974Z,949.7
2016-06-03T01:42:23.974Z,949.7
2016-06-03T01:42:33.958Z,949.8
2016-06-03T01:42:43.958Z,949.8
2016-06-03T01:42:53.977Z,949.7
2016-06-03T01:43:03.961Z,949.6
2016-06-03T01:43:13.961Z,949.8
2016-06-03T01:43:23.977Z,949.8
2016-06-03T01:43:33.961Z,949.7
2016-06-03T01:43:43.961Z,949.7
2016-06-03T01:43:53.948Z,949.8
2016-06-03T01:44:03.964Z,949.7
2016-06-03T01:44:13.948Z,949.8
2016-06-03T01:44:23.948Z,949.8
2016-06-03T01:44:33.933Z,949.8
2016-06-03T01:44:43.948Z,949.8
2016-06-03T01:44:53.779Z,949.8
2016-06-03T01:45:03.936Z,949.8
2016-06-03T01:45:13.936Z,949.8
2016-06-03T01:45:23.920Z,949.8
2016-06-03T01:45:33.936Z,949.8
2016-06-03T01:45:43.920Z,949.7
2016-06-03T01:45:53.922Z,949.7
2016-06-03T01:46:03.922Z,949.7
2016-06-03T01:46:13.938Z,949.8
2016-06-03T01:46:23.922Z,949.7
2016-06-03T01:46:33.906Z,949.9
2016-06-03T01:46:43.766Z,949.8
2016-06-03T01:46:53.894Z,949.8
2016-06-03T01:47:03.894Z,949.8
2016-06-03T01:47:13.909Z,949.8
2016-06-03T01:47:23.894Z,949.8
2016-06-03T01:47:33.753Z,949.8
2016-06-03T01:47:43.894Z,949.8
2016-06-03T01:47:53.897Z,949.8
2016-06-03T01:48:03.897Z,949.8
2016-06-03T01:48:13.928Z,949.7
2016-06-03T01:48:23.881Z,949.7
2016-06-03T01:48:33.881Z,949.8
2016-06-03T01:48:43.897Z,949.8
2016-06-03T01:48:53.868Z,949.7
2016-06-03T01:49:03.883Z,949.8
2016-06-03T01:49:13.868Z,949.7
2016-06-03T01:49:23.868Z,949.7
2016-06-03T01:49:33.868Z,949.7
2016-06-03T01:49:43.868Z,949.7
2016-06-03T01:49:53.855Z,949.6
2016-06-03T01:50:03.886Z,949.7
2016-06-03T01:50:13.855Z,949.7
2016-06-03T01:50:23.871Z,949.7
2016-06-03T01:50:33.855Z,949.7
2016-06-03T01:50:43.855Z,949.8
2016-06-03T01:50:53.842Z,949.7
2016-06-03T01:51:03.858Z,949.7
2016-06-03T01:51:13.858Z,949.7
2016-06-03T01:51:23.842Z,949.7
2016-06-03T01:51:33.858Z,949.6
2016-06-03T01:51:43.842Z,949.6
2016-06-03T01:51:53.845Z,949.6
2016-06-03T01:52:03.845Z,949.6
2016-06-03T01:52:13.830Z,949.7
2016-06-03T01:52:23.830Z,949.6
2016-06-03T01:52:33.845Z,949.6
2016-06-03T01:52:43.830Z,949.6
2016-06-03T01:52:53.817Z,949.6
2016-06-03T01:53:03.833Z,949.7
2016-06-03T01:53:13.833Z,949.7
2016-06-03T01:53:23.817Z,949.7
2016-06-03T01:53:33.817Z,949.7
2016-06-03T01:53:43.801Z,949.6
2016-06-03T01:53:53.818Z,949.7
2016-06-03T01:54:03.818Z,949.7
2016-06-03T01:54:13.802Z,949.6
2016-06-03T01:54:23.802Z,949.6
2016-06-03T01:54:33.834Z,949.6
2016-06-03T01:54:46.240Z,949.6
2016-06-03T01:54:53.665Z,949.6
2016-06-03T01:55:04.134Z,949.7
2016-06-03T01:55:13.821Z,949.6
2016-06-03T01:55:23.759Z,949.6
2016-06-03T01:55:33.915Z,949.6
2016-06-03T01:55:44.634Z,949.6
2016-06-03T01:55:53.668Z,949.6
2016-06-03T01:56:03.621Z,949.7
2016-06-03T01:56:13.777Z,949.6
2016-06-03T01:56:23.777Z,949.6
2016-06-03T01:56:33.777Z,949.5
2016-06-03T01:56:43.777Z,949.5
2016-06-03T01:56:53.608Z,949.6
2016-06-03T01:57:03.624Z,949.6
2016-06-03T01:57:13.765Z,949.6
2016-06-03T01:57:23.749Z,949.6
2016-06-03T01:57:33.765Z,949.6
2016-06-03T01:57:43.765Z,949.6
2016-06-03T01:57:53.767Z,949.6
2016-06-03T01:58:03.751Z,949.6
2016-06-03T01:58:13.767Z,949.6
2016-06-03T01:58:23.751Z,949.6
2016-06-03T01:58:33.751Z,949.7
2016-06-03T01:58:43.735Z,949.6
2016-06-03T01:58:53.754Z,949.6
2016-06-03T01:59:03.738Z,949.6
2016-06-03T01:59:13.754Z,949.7
2016-06-03T01:59:23.738Z,949.6
2016-06-03T01:59:33.723Z,949.7
2016-06-03T01:59:43.723Z,949.6
2016-06-03T01:59:53.726Z,949.6
2016-06-03T02:00:03.741Z,949.6
2016-06-03T02:00:13.726Z,949.7
2016-06-03T02:00:23.710Z,949.6
2016-06-03T02:00:33.726Z,949.6
2016-06-03T02:00:43.710Z,949.6
2016-06-03T02:00:53.713Z,949.6
2016-06-03T02:01:03.729Z,949.6
2016-06-03T02:01:13.713Z,949.6
2016-06-03T02:01:23.713Z,949.6
2016-06-03T02:01:33.713Z,949.6
2016-06-03T02:01:43.729Z,949.7
2016-06-03T02:01:53.559Z,949.6
2016-06-03T02:02:03.746Z,949.6
2016-06-03T02:02:13.699Z,949.6
2016-06-03T02:02:23.684Z,949.6
2016-06-03T02:02:33.715Z,949.6
2016-06-03T02:02:43.684Z,949.6
2016-06-03T02:02:53.688Z,949.6
2016-06-03T02:03:03.703Z,949.7
2016-06-03T02:03:13.532Z,949.7
2016-06-03T02:03:23.532Z,949.6
2016-06-03T02:03:33.688Z,949.6
2016-06-03T02:03:43.672Z,949.7
2016-06-03T02:03:53.674Z,949.6
2016-06-03T02:04:03.659Z,949.7
2016-06-03T02:04:13.690Z,949.6
2016-06-03T02:04:23.690Z,949.6
2016-06-03T02:04:33.502Z,949.6
2016-06-03T02:04:43.674Z,949.7
2016-06-03T02:04:53.676Z,949.6
2016-06-03T02:05:03.676Z,949.6
2016-06-03T02:05:13.645Z,949.6
2016-06-03T02:05:23.676Z,949.6
2016-06-03T02:05:33.645Z,949.6
2016-06-03T02:05:43.661Z,949.7
2016-06-03T02:05:53.648Z,949.6
2016-06-03T02:06:03.507Z,949.6
2016-06-03T02:06:13.648Z,949.6
2016-06-03T02:06:23.648Z,949.7
2016-06-03T02:06:33.648Z,949.7
2016-06-03T02:06:43.476Z,949.6
2016-06-03T02:06:53.495Z,949.7
2016-06-03T02:07:03.620Z,949.6
2016-06-03T02:07:13.635Z,949.5
2016-06-03T02:07:23.620Z,949.6
2016-06-03T02:07:33.620Z,949.6
2016-06-03T02:07:43.651Z,949.6
2016-06-03T02:07:53.622Z,949.6
2016-06-03T02:08:03.622Z,949.6
2016-06-03T02:08:13.622Z,949.6
2016-06-03T02:08:23.606Z,949.6
2016-06-03T02:08:33.606Z,949.7
2016-06-03T02:08:43.622Z,949.7
2016-06-03T02:08:53.454Z,949.7
2016-06-03T02:09:03.594Z,949.6
2016-06-03T02:09:13.626Z,949.7
2016-06-03T02:09:23.594Z,949.7
2016-06-03T02:09:33.907Z,949.7
2016-06-03T02:09:43.954Z,949.7
2016-06-03T02:09:53.987Z,949.7
2016-06-03T02:10:03.471Z,949.7
2016-06-03T02:10:15.643Z,949.8
2016-06-03T02:10:23.987Z,949.7
2016-06-03T02:10:34.268Z,949.8
2016-06-03T02:10:44.690Z,949.7
2016-06-03T02:10:54.349Z,949.8
2016-06-03T02:11:03.599Z,949.8
2016-06-03T02:11:13.568Z,949.8
2016-06-03T02:11:23.428Z,949.9